sensor_id;sensor_type;location;lat;lon;timestamp;temperature;humidity
3356;DHT22;1691;52.486;13.374;2023-04-01T00:00:01;10.80;98.70
3356;DHT22;1691;52.486;13.374;2023-04-01T00:02:29;10.80;98.70
3356;DHT22;1691;52.486;13.374;2023-04-01T00:04:57;10.80;98.70
3356;DHT22;1691;52.486;13.374;2023-04-01T00:07:24;10.80;98.70
3356;DHT22;1691;52.486;13.374;2023-04-01T00:09:56;10.90;98.70
3356;DHT22;1691;52.486;13.374;2023-04-01T00:12:23;10.90;98.70
3356;DHT22;1691;52.486;13.374;2023-04-01T00:14:51;10.80;98.70
3356;DHT22;1691;52.486;13.374;2023-04-01T00:17:18;10.90;98.70
3356;DHT22;1691;52.486;13.374;2023-04-01T00:19:45;10.90;98.70
3356;DHT22;1691;52.486;13.374;2023-04-01T00:22:12;10.90;98.70
3356;DHT22;1691;52.486;13.374;2023-04-01T00:24:39;10.90;98.70
3356;DHT22;1691;52.486;13.374;2023-04-01T00:27:06;10.90;98.70
3356;DHT22;1691;52.486;13.374;2023-04-01T00:29:34;10.90;98.70
3356;DHT22;1691;52.486;13.374;2023-04-01T00:32:02;10.90;98.70
3356;DHT22;1691;52.486;13.374;2023-04-01T00:34:29;10.90;98.70
3356;DHT22;1691;52.486;13.374;2023-04-01T00:36:56;10.90;98.70
3356;DHT22;1691;52.486;13.374;2023-04-01T00:39:23;10.90;98.70
3356;DHT22;1691;52.486;13.374;2023-04-01T00:41:50;10.90;98.70
3356;DHT22;1691;52.486;13.374;2023-04-01T00:44:23;10.90;98.70
3356;DHT22;1691;52.486;13.374;2023-04-01T00:46:52;11.00;98.70
3356;DHT22;1691;52.486;13.374;2023-04-01T00:49:25;11.00;98.70
3356;DHT22;1691;52.486;13.374;2023-04-01T00:51:56;11.00;98.70
3356;DHT22;1691;52.486;13.374;2023-04-01T00:54:27;11.00;98.70
3356;DHT22;1691;52.486;13.374;2023-04-01T00:57:05;11.00;98.70
3356;DHT22;1691;52.486;13.374;2023-04-01T00:59:35;11.00;98.70
3356;DHT22;1691;52.486;13.374;2023-04-01T01:02:08;11.00;98.70
3356;DHT22;1691;52.486;13.374;2023-04-01T01:04:38;11.00;98.70
3356;DHT22;1691;52.486;13.374;2023-04-01T01:07:28;11.00;98.70
3356;DHT22;1691;52.486;13.374;2023-04-01T01:10:19;10.90;98.70
3356;DHT22;1691;52.486;13.374;2023-04-01T01:13:03;10.90;98.70
3356;DHT22;1691;52.486;13.374;2023-04-01T01:16:09;10.90;98.70
3356;DHT22;1691;52.486;13.374;2023-04-01T01:22:11;10.90;98.70
3356;DHT22;1691;52.486;13.374;2023-04-01T01:27:29;11.00;98.70
3356;DHT22;1691;52.486;13.374;2023-04-01T01:33:24;11.00;98.70
3356;DHT22;1691;52.486;13.374;2023-04-01T01:35:59;11.00;98.70
3356;DHT22;1691;52.486;13.374;2023-04-01T01:38:31;11.00;98.70
3356;DHT22;1691;52.486;13.374;2023-04-01T01:41:01;11.00;98.70
3356;DHT22;1691;52.486;13.374;2023-04-01T01:43:35;11.00;98.70
3356;DHT22;1691;52.486;13.374;2023-04-01T01:46:09;11.00;98.70
3356;DHT22;1691;52.486;13.374;2023-04-01T01:48:40;11.00;98.70
3356;DHT22;1691;52.486;13.374;2023-04-01T01:51:08;11.00;98.70
3356;DHT22;1691;52.486;13.374;2023-04-01T01:53:36;11.00;98.70
3356;DHT22;1691;52.486;13.374;2023-04-01T01:56:04;11.00;98.70
3356;DHT22;1691;52.486;13.374;2023-04-01T01:58:52;11.00;98.70
3356;DHT22;1691;52.486;13.374;2023-04-01T02:01:28;11.00;98.70
3356;DHT22;1691;52.486;13.374;2023-04-01T02:03:58;11.00;98.70
3356;DHT22;1691;52.486;13.374;2023-04-01T02:06:28;11.00;98.70
3356;DHT22;1691;52.486;13.374;2023-04-01T02:09:01;11.00;98.70
3356;DHT22;1691;52.486;13.374;2023-04-01T02:12:19;11.00;98.70
3356;DHT22;1691;52.486;13.374;2023-04-01T02:14:45;11.10;98.70
3356;DHT22;1691;52.486;13.374;2023-04-01T02:17:18;11.00;98.70
3356;DHT22;1691;52.486;13.374;2023-04-01T02:20:01;11.00;98.70
3356;DHT22;1691;52.486;13.374;2023-04-01T02:22:34;11.00;98.70
3356;DHT22;1691;52.486;13.374;2023-04-01T02:25:08;11.00;98.70
3356;DHT22;1691;52.486;13.374;2023-04-01T02:27:43;11.00;98.70
3356;DHT22;1691;52.486;13.374;2023-04-01T02:30:12;11.00;98.70
3356;DHT22;1691;52.486;13.374;2023-04-01T02:32:41;11.00;98.70
3356;DHT22;1691;52.486;13.374;2023-04-01T02:35:10;11.00;98.70
3356;DHT22;1691;52.486;13.374;2023-04-01T02:37:40;10.90;98.70
3356;DHT22;1691;52.486;13.374;2023-04-01T02:40:13;11.00;98.70
3356;DHT22;1691;52.486;13.374;2023-04-01T02:42:40;10.90;98.70
3356;DHT22;1691;52.486;13.374;2023-04-01T02:45:08;10.90;98.70
3356;DHT22;1691;52.486;13.374;2023-04-01T02:47:36;10.80;98.70
3356;DHT22;1691;52.486;13.374;2023-04-01T02:50:03;10.80;98.70
3356;DHT22;1691;52.486;13.374;2023-04-01T02:52:32;10.70;98.70
3356;DHT22;1691;52.486;13.374;2023-04-01T02:54:59;10.70;98.70
3356;DHT22;1691;52.486;13.374;2023-04-01T02:57:26;10.60;98.70
3356;DHT22;1691;52.486;13.374;2023-04-01T02:59:53;10.60;98.70
3356;DHT22;1691;52.486;13.374;2023-04-01T03:02:20;10.60;98.70
3356;DHT22;1691;52.486;13.374;2023-04-01T03:04:47;10.60;98.70
3356;DHT22;1691;52.486;13.374;2023-04-01T03:07:14;10.70;98.70
3356;DHT22;1691;52.486;13.374;2023-04-01T03:09:41;10.70;98.70
3356;DHT22;1691;52.486;13.374;2023-04-01T03:12:08;10.70;98.70
3356;DHT22;1691;52.486;13.374;2023-04-01T03:14:35;10.70;98.70
3356;DHT22;1691;52.486;13.374;2023-04-01T03:17:02;10.80;98.70
3356;DHT22;1691;52.486;13.374;2023-04-01T03:19:29;10.80;98.70
3356;DHT22;1691;52.486;13.374;2023-04-01T03:21:55;10.80;98.70
3356;DHT22;1691;52.486;13.374;2023-04-01T03:24:23;10.80;98.70
3356;DHT22;1691;52.486;13.374;2023-04-01T03:26:49;10.80;98.70
3356;DHT22;1691;52.486;13.374;2023-04-01T03:29:16;10.80;98.70
3356;DHT22;1691;52.486;13.374;2023-04-01T03:31:43;10.80;98.70
3356;DHT22;1691;52.486;13.374;2023-04-01T03:34:10;10.90;98.70
3356;DHT22;1691;52.486;13.374;2023-04-01T03:36:37;10.90;98.70
3356;DHT22;1691;52.486;13.374;2023-04-01T03:39:04;10.90;98.70
3356;DHT22;1691;52.486;13.374;2023-04-01T03:41:32;10.90;98.70
3356;DHT22;1691;52.486;13.374;2023-04-01T03:44:02;10.90;98.70
3356;DHT22;1691;52.486;13.374;2023-04-01T03:46:29;10.90;98.70
3356;DHT22;1691;52.486;13.374;2023-04-01T03:48:56;10.90;98.70
3356;DHT22;1691;52.486;13.374;2023-04-01T03:51:23;10.90;98.70
3356;DHT22;1691;52.486;13.374;2023-04-01T03:53:49;10.90;98.70
3356;DHT22;1691;52.486;13.374;2023-04-01T03:56:16;10.90;98.70
3356;DHT22;1691;52.486;13.374;2023-04-01T03:58:43;10.90;98.70
3356;DHT22;1691;52.486;13.374;2023-04-01T04:01:15;10.90;98.70
3356;DHT22;1691;52.486;13.374;2023-04-01T04:03:48;11.00;98.70
3356;DHT22;1691;52.486;13.374;2023-04-01T04:06:18;11.00;98.70
3356;DHT22;1691;52.486;13.374;2023-04-01T04:08:45;11.00;98.70
3356;DHT22;1691;52.486;13.374;2023-04-01T04:11:12;11.00;98.70
3356;DHT22;1691;52.486;13.374;2023-04-01T04:13:40;11.00;98.70
3356;DHT22;1691;52.486;13.374;2023-04-01T04:16:09;11.00;98.70
3356;DHT22;1691;52.486;13.374;2023-04-01T04:18:37;11.00;98.70
3356;DHT22;1691;52.486;13.374;2023-04-01T04:21:04;11.00;98.70
3356;DHT22;1691;52.486;13.374;2023-04-01T04:23:31;11.00;98.70
3356;DHT22;1691;52.486;13.374;2023-04-01T04:26:04;11.00;98.70
3356;DHT22;1691;52.486;13.374;2023-04-01T04:28:33;11.10;98.70
3356;DHT22;1691;52.486;13.374;2023-04-01T04:31:00;11.10;98.70
3356;DHT22;1691;52.486;13.374;2023-04-01T04:33:28;11.10;98.70
3356;DHT22;1691;52.486;13.374;2023-04-01T04:35:56;11.10;98.70
3356;DHT22;1691;52.486;13.374;2023-04-01T04:38:24;11.10;98.70
3356;DHT22;1691;52.486;13.374;2023-04-01T04:40:52;11.10;98.70
3356;DHT22;1691;52.486;13.374;2023-04-01T04:43:20;11.10;98.70
3356;DHT22;1691;52.486;13.374;2023-04-01T04:45:47;11.00;98.70
3356;DHT22;1691;52.486;13.374;2023-04-01T04:48:15;11.00;98.70
3356;DHT22;1691;52.486;13.374;2023-04-01T04:50:49;11.00;98.70
3356;DHT22;1691;52.486;13.374;2023-04-01T04:53:18;11.00;98.70
3356;DHT22;1691;52.486;13.374;2023-04-01T04:55:47;11.00;98.70
3356;DHT22;1691;52.486;13.374;2023-04-01T04:58:16;11.00;98.70
3356;DHT22;1691;52.486;13.374;2023-04-01T05:00:43;11.00;98.70
3356;DHT22;1691;52.486;13.374;2023-04-01T05:03:11;11.00;98.70
3356;DHT22;1691;52.486;13.374;2023-04-01T05:05:39;10.90;98.70
3356;DHT22;1691;52.486;13.374;2023-04-01T05:08:06;11.00;98.70
3356;DHT22;1691;52.486;13.374;2023-04-01T05:10:33;11.00;98.70
3356;DHT22;1691;52.486;13.374;2023-04-01T05:13:00;11.00;98.70
3356;DHT22;1691;52.486;13.374;2023-04-01T05:15:27;11.00;98.70
3356;DHT22;1691;52.486;13.374;2023-04-01T05:17:54;11.00;98.70
3356;DHT22;1691;52.486;13.374;2023-04-01T05:20:21;11.00;98.70
3356;DHT22;1691;52.486;13.374;2023-04-01T05:22:48;11.10;98.70
3356;DHT22;1691;52.486;13.374;2023-04-01T05:25:15;11.10;98.70
3356;DHT22;1691;52.486;13.374;2023-04-01T05:27:42;11.10;98.70
3356;DHT22;1691;52.486;13.374;2023-04-01T05:30:09;11.10;98.70
3356;DHT22;1691;52.486;13.374;2023-04-01T05:32:37;11.10;98.70
3356;DHT22;1691;52.486;13.374;2023-04-01T05:35:05;11.10;98.70
3356;DHT22;1691;52.486;13.374;2023-04-01T05:37:34;11.20;98.70
3356;DHT22;1691;52.486;13.374;2023-04-01T05:40:02;11.20;98.70
3356;DHT22;1691;52.486;13.374;2023-04-01T05:42:30;11.20;98.70
3356;DHT22;1691;52.486;13.374;2023-04-01T05:44:57;11.20;98.70
3356;DHT22;1691;52.486;13.374;2023-04-01T05:47:24;11.30;98.70
3356;DHT22;1691;52.486;13.374;2023-04-01T05:49:51;11.30;98.70
3356;DHT22;1691;52.486;13.374;2023-04-01T05:52:18;11.40;98.70
3356;DHT22;1691;52.486;13.374;2023-04-01T05:54:45;11.40;98.70
3356;DHT22;1691;52.486;13.374;2023-04-01T05:57:12;11.40;98.70
3356;DHT22;1691;52.486;13.374;2023-04-01T05:59:39;11.40;98.70
3356;DHT22;1691;52.486;13.374;2023-04-01T06:02:06;11.50;98.70
3356;DHT22;1691;52.486;13.374;2023-04-01T06:04:38;11.50;98.70
3356;DHT22;1691;52.486;13.374;2023-04-01T06:07:17;11.50;98.70
3356;DHT22;1691;52.486;13.374;2023-04-01T06:09:45;11.50;98.70
3356;DHT22;1691;52.486;13.374;2023-04-01T06:13:22;11.50;98.70
3356;DHT22;1691;52.486;13.374;2023-04-01T06:19:27;11.60;98.70
3356;DHT22;1691;52.486;13.374;2023-04-01T06:39:58;11.60;98.70
3356;DHT22;1691;52.486;13.374;2023-04-01T06:54:30;11.80;98.70
3356;DHT22;1691;52.486;13.374;2023-04-01T06:57:03;11.80;98.70
3356;DHT22;1691;52.486;13.374;2023-04-01T06:59:36;11.80;98.70
3356;DHT22;1691;52.486;13.374;2023-04-01T07:04:40;11.90;98.70
3356;DHT22;1691;52.486;13.374;2023-04-01T07:07:26;12.00;98.70
3356;DHT22;1691;52.486;13.374;2023-04-01T07:09:59;12.00;98.70
3356;DHT22;1691;52.486;13.374;2023-04-01T07:15:30;12.10;98.70
3356;DHT22;1691;52.486;13.374;2023-04-01T07:18:05;12.20;98.70
3356;DHT22;1691;52.486;13.374;2023-04-01T07:20:46;12.30;98.70
3356;DHT22;1691;52.486;13.374;2023-04-01T07:23:22;12.50;98.70
3356;DHT22;1691;52.486;13.374;2023-04-01T07:25:58;12.60;98.70
3356;DHT22;1691;52.486;13.374;2023-04-01T07:28:31;12.80;98.70
3356;DHT22;1691;52.486;13.374;2023-04-01T07:33:42;13.00;98.70
3356;DHT22;1691;52.486;13.374;2023-04-01T07:41:55;13.50;98.70
3356;DHT22;1691;52.486;13.374;2023-04-01T07:53:52;14.50;98.70
3356;DHT22;1691;52.486;13.374;2023-04-01T08:07:44;15.70;98.70
3356;DHT22;1691;52.486;13.374;2023-04-01T08:13:48;16.40;98.70
3356;DHT22;1691;52.486;13.374;2023-04-01T08:22:41;16.10;97.90
3356;DHT22;1691;52.486;13.374;2023-04-01T08:25:16;15.80;98.10
3356;DHT22;1691;52.486;13.374;2023-04-01T08:28:03;15.60;98.00
3356;DHT22;1691;52.486;13.374;2023-04-01T08:30:58;15.20;97.50
3356;DHT22;1691;52.486;13.374;2023-04-01T08:33:31;14.90;98.00
3356;DHT22;1691;52.486;13.374;2023-04-01T08:36:03;14.70;97.90
3356;DHT22;1691;52.486;13.374;2023-04-01T08:44:09;14.40;98.00
3356;DHT22;1691;52.486;13.374;2023-04-01T08:50:32;14.00;97.40
3356;DHT22;1691;52.486;13.374;2023-04-01T08:56:20;13.40;97.30
3356;DHT22;1691;52.486;13.374;2023-04-01T09:01:58;13.10;97.90
3356;DHT22;1691;52.486;13.374;2023-04-01T09:35:19;11.40;98.70
3356;DHT22;1691;52.486;13.374;2023-04-01T09:38:30;11.30;98.70
3356;DHT22;1691;52.486;13.374;2023-04-01T09:44:18;10.90;98.70
3356;DHT22;1691;52.486;13.374;2023-04-01T09:53:32;10.30;98.70
3356;DHT22;1691;52.486;13.374;2023-04-01T10:05:48;9.90;98.70
3356;DHT22;1691;52.486;13.374;2023-04-01T10:12:17;9.80;98.70
3356;DHT22;1691;52.486;13.374;2023-04-01T10:18:20;9.90;98.70
3356;DHT22;1691;52.486;13.374;2023-04-01T10:21:15;9.90;98.70
3356;DHT22;1691;52.486;13.374;2023-04-01T10:27:43;9.90;98.70
3356;DHT22;1691;52.486;13.374;2023-04-01T10:42:34;9.90;98.70
3356;DHT22;1691;52.486;13.374;2023-04-01T10:48:14;9.80;98.70
3356;DHT22;1691;52.486;13.374;2023-04-01T10:56:56;9.60;98.70
3356;DHT22;1691;52.486;13.374;2023-04-01T11:11:33;9.70;98.70
3356;DHT22;1691;52.486;13.374;2023-04-01T11:20:48;9.60;98.70
3356;DHT22;1691;52.486;13.374;2023-04-01T11:29:44;9.80;98.70
3356;DHT22;1691;52.486;13.374;2023-04-01T11:35:42;10.10;98.70
3356;DHT22;1691;52.486;13.374;2023-04-01T11:41:51;9.90;98.70
3356;DHT22;1691;52.486;13.374;2023-04-01T11:44:29;9.90;98.70
3356;DHT22;1691;52.486;13.374;2023-04-01T11:58:50;9.60;98.70
3356;DHT22;1691;52.486;13.374;2023-04-01T12:01:47;9.50;98.70
3356;DHT22;1691;52.486;13.374;2023-04-01T12:04:41;9.50;98.70
3356;DHT22;1691;52.486;13.374;2023-04-01T12:10:40;9.60;98.70
3356;DHT22;1691;52.486;13.374;2023-04-01T12:13:36;9.60;98.70
3356;DHT22;1691;52.486;13.374;2023-04-01T12:30:34;9.30;98.70
3356;DHT22;1691;52.486;13.374;2023-04-01T12:36:19;9.10;98.70
3356;DHT22;1691;52.486;13.374;2023-04-01T12:39:18;9.20;98.70
3356;DHT22;1691;52.486;13.374;2023-04-01T12:46:13;9.20;98.70
3356;DHT22;1691;52.486;13.374;2023-04-01T12:49:45;9.30;98.70
3356;DHT22;1691;52.486;13.374;2023-04-01T12:53:36;9.40;98.70
3356;DHT22;1691;52.486;13.374;2023-04-01T12:56:26;9.30;98.70
3356;DHT22;1691;52.486;13.374;2023-04-01T13:03:36;9.00;98.70
3356;DHT22;1691;52.486;13.374;2023-04-01T13:15:35;8.90;98.70
3356;DHT22;1691;52.486;13.374;2023-04-01T13:18:14;8.90;98.70
3356;DHT22;1691;52.486;13.374;2023-04-01T13:21:03;8.90;98.70
3356;DHT22;1691;52.486;13.374;2023-04-01T13:26:57;8.90;98.70
3356;DHT22;1691;52.486;13.374;2023-04-01T13:30:36;8.80;98.70
3356;DHT22;1691;52.486;13.374;2023-04-01T13:41:23;8.50;98.70
3356;DHT22;1691;52.486;13.374;2023-04-01T13:44:40;8.40;98.70
3356;DHT22;1691;52.486;13.374;2023-04-01T14:04:54;8.30;98.70
3356;DHT22;1691;52.486;13.374;2023-04-01T14:08:04;8.30;98.70
3356;DHT22;1691;52.486;13.374;2023-04-01T14:21:33;8.40;98.70
3356;DHT22;1691;52.486;13.374;2023-04-01T14:31:43;8.20;98.70
3356;DHT22;1691;52.486;13.374;2023-04-01T14:35:19;8.20;98.70
3356;DHT22;1691;52.486;13.374;2023-04-01T14:54:21;8.10;98.70
3356;DHT22;1691;52.486;13.374;2023-04-01T15:03:27;7.90;98.70
3356;DHT22;1691;52.486;13.374;2023-04-01T15:11:01;7.80;98.70
3356;DHT22;1691;52.486;13.374;2023-04-01T15:13:48;7.80;98.70
3356;DHT22;1691;52.486;13.374;2023-04-01T15:20:31;7.90;98.70
3356;DHT22;1691;52.486;13.374;2023-04-01T15:27:09;7.90;98.70
3356;DHT22;1691;52.486;13.374;2023-04-01T15:37:09;7.80;98.70
3356;DHT22;1691;52.486;13.374;2023-04-01T15:43:38;7.80;98.70
3356;DHT22;1691;52.486;13.374;2023-04-01T15:46:47;7.70;98.70
3356;DHT22;1691;52.486;13.374;2023-04-01T15:49:44;7.70;98.70
3356;DHT22;1691;52.486;13.374;2023-04-01T15:56:22;7.80;98.70
3356;DHT22;1691;52.486;13.374;2023-04-01T15:59:20;7.80;98.70
3356;DHT22;1691;52.486;13.374;2023-04-01T16:21:02;7.50;98.70
3356;DHT22;1691;52.486;13.374;2023-04-01T16:34:02;7.20;98.70
3356;DHT22;1691;52.486;13.374;2023-04-01T16:37:07;7.20;98.70
3356;DHT22;1691;52.486;13.374;2023-04-01T16:40:34;7.10;98.70
3356;DHT22;1691;52.486;13.374;2023-04-01T16:55:19;6.90;98.70
3356;DHT22;1691;52.486;13.374;2023-04-01T16:58:43;6.80;98.70
3356;DHT22;1691;52.486;13.374;2023-04-01T17:12:49;6.70;98.70
3356;DHT22;1691;52.486;13.374;2023-04-01T17:27:45;6.50;98.70
3356;DHT22;1691;52.486;13.374;2023-04-01T17:35:19;6.40;98.70
3356;DHT22;1691;52.486;13.374;2023-04-01T17:49:49;6.20;98.70
3356;DHT22;1691;52.486;13.374;2023-04-01T18:02:39;6.10;98.70
3356;DHT22;1691;52.486;13.374;2023-04-01T18:09:04;6.00;98.70
3356;DHT22;1691;52.486;13.374;2023-04-01T18:22:25;5.70;98.70
3356;DHT22;1691;52.486;13.374;2023-04-01T18:36:47;5.60;98.70
3356;DHT22;1691;52.486;13.374;2023-04-01T18:39:38;5.50;98.70
3356;DHT22;1691;52.486;13.374;2023-04-01T18:45:40;5.50;98.70
3356;DHT22;1691;52.486;13.374;2023-04-01T18:52:02;5.50;98.70
3356;DHT22;1691;52.486;13.374;2023-04-01T18:57:49;5.50;98.70
3356;DHT22;1691;52.486;13.374;2023-04-01T19:00:33;5.50;98.70
3356;DHT22;1691;52.486;13.374;2023-04-01T19:03:16;5.50;98.70
3356;DHT22;1691;52.486;13.374;2023-04-01T19:05:52;5.50;98.70
3356;DHT22;1691;52.486;13.374;2023-04-01T19:19:28;5.50;98.70
3356;DHT22;1691;52.486;13.374;2023-04-01T19:36:31;5.40;98.70
3356;DHT22;1691;52.486;13.374;2023-04-01T19:39:25;5.40;98.70
3356;DHT22;1691;52.486;13.374;2023-04-01T19:45:43;5.30;98.70
3356;DHT22;1691;52.486;13.374;2023-04-01T19:48:56;5.30;98.70
3356;DHT22;1691;52.486;13.374;2023-04-01T19:51:48;5.30;98.70
3356;DHT22;1691;52.486;13.374;2023-04-01T19:54:44;5.20;98.70
3356;DHT22;1691;52.486;13.374;2023-04-01T20:00:44;5.10;98.70
3356;DHT22;1691;52.486;13.374;2023-04-01T20:06:37;5.10;98.70
3356;DHT22;1691;52.486;13.374;2023-04-01T20:14:58;5.10;98.70
3356;DHT22;1691;52.486;13.374;2023-04-01T20:17:32;5.30;98.70
3356;DHT22;1691;52.486;13.374;2023-04-01T20:25:22;5.30;98.70
3356;DHT22;1691;52.486;13.374;2023-04-01T20:28:04;5.20;98.70
3356;DHT22;1691;52.486;13.374;2023-04-01T20:37:35;4.90;98.70
3356;DHT22;1691;52.486;13.374;2023-04-01T20:40:08;4.90;98.70
3356;DHT22;1691;52.486;13.374;2023-04-01T20:45:58;4.90;98.70
3356;DHT22;1691;52.486;13.374;2023-04-01T20:49:07;4.90;98.70
3356;DHT22;1691;52.486;13.374;2023-04-01T20:51:54;4.80;98.70
3356;DHT22;1691;52.486;13.374;2023-04-01T20:57:25;4.70;98.70
3356;DHT22;1691;52.486;13.374;2023-04-01T21:09:25;4.60;98.70
3356;DHT22;1691;52.486;13.374;2023-04-01T21:15:00;4.50;98.70
3356;DHT22;1691;52.486;13.374;2023-04-01T21:18:10;4.50;98.70
3356;DHT22;1691;52.486;13.374;2023-04-01T21:27:29;4.50;98.70
3356;DHT22;1691;52.486;13.374;2023-04-01T21:30:48;4.40;98.70
3356;DHT22;1691;52.486;13.374;2023-04-01T21:42:28;4.40;98.70
3356;DHT22;1691;52.486;13.374;2023-04-01T22:00:38;4.20;98.70
3356;DHT22;1691;52.486;13.374;2023-04-01T22:09:22;4.10;98.70
3356;DHT22;1691;52.486;13.374;2023-04-01T22:14:31;4.10;98.70
3356;DHT22;1691;52.486;13.374;2023-04-01T22:17:36;4.10;98.70
3356;DHT22;1691;52.486;13.374;2023-04-01T22:25:40;4.10;98.70
3356;DHT22;1691;52.486;13.374;2023-04-01T22:28:18;4.10;98.70
3356;DHT22;1691;52.486;13.374;2023-04-01T22:31:00;4.10;98.70
3356;DHT22;1691;52.486;13.374;2023-04-01T22:45:25;4.10;98.70
3356;DHT22;1691;52.486;13.374;2023-04-01T22:51:54;4.00;98.70
3356;DHT22;1691;52.486;13.374;2023-04-01T22:54:42;4.00;98.70
3356;DHT22;1691;52.486;13.374;2023-04-01T22:57:35;4.00;98.70
3356;DHT22;1691;52.486;13.374;2023-04-01T23:00:35;4.10;98.70
3356;DHT22;1691;52.486;13.374;2023-04-01T23:03:19;4.10;98.70
3356;DHT22;1691;52.486;13.374;2023-04-01T23:05:51;4.00;98.70
3356;DHT22;1691;52.486;13.374;2023-04-01T23:11:40;4.00;98.70
3356;DHT22;1691;52.486;13.374;2023-04-01T23:23:20;4.00;98.70
3356;DHT22;1691;52.486;13.374;2023-04-01T23:26:31;4.00;98.70
3356;DHT22;1691;52.486;13.374;2023-04-01T23:29:14;4.00;98.70
3356;DHT22;1691;52.486;13.374;2023-04-01T23:31:56;4.00;98.70
3356;DHT22;1691;52.486;13.374;2023-04-01T23:34:30;4.00;98.70
3356;DHT22;1691;52.486;13.374;2023-04-01T23:37:07;4.00;98.70
3356;DHT22;1691;52.486;13.374;2023-04-01T23:39:41;4.00;98.70
3356;DHT22;1691;52.486;13.374;2023-04-01T23:42:32;4.00;98.70
3356;DHT22;1691;52.486;13.374;2023-04-01T23:45:04;4.00;98.70
3356;DHT22;1691;52.486;13.374;2023-04-01T23:47:38;4.00;98.70
3356;DHT22;1691;52.486;13.374;2023-04-01T23:52:54;4.00;98.70
3356;DHT22;1691;52.486;13.374;2023-04-01T23:55:34;4.00;98.70
